Time;durP1;ratioP1;P1;durP2;ratioP2;P2;SDS_P1;SDS_P2;PMS_P1;PMS_P2;Temp;Humidity;BMP_temperature;BMP_pressure;BME280_temperature;BME280_humidity;BME280_pressure;Samples;Min_cycle;Max_cycle;Signal;HPM_P1;HPM_P2
2023/03/23 00:00:58;;;;;;;0.60;0.60;;;;;;;12.79;59.48;94974.00;4355379;32;20181;-53
2023/03/23 00:03:25;;;;;;;1.23;0.73;;;;;;;12.84;59.19;94971.19;4354614;32;20184;-54
2023/03/23 00:05:51;;;;;;;0.93;0.93;;;;;;;12.80;59.23;94971.03;4372834;32;20239;-52
2023/03/23 00:08:23;;;;;;;2.20;0.97;;;;;;;12.67;59.63;94977.31;4367827;32;20223;-54
2023/03/23 00:10:52;;;;;;;0.90;0.90;;;;;;;12.68;59.98;94968.19;4357124;32;20206;-53
2023/03/23 00:13:19;;;;;;;0.40;0.40;;;;;;;12.59;60.24;94975.44;4352325;32;20239;-53
2023/03/23 00:15:45;;;;;;;2.30;1.30;;;;;;;12.57;60.91;94973.06;4374028;32;20195;-54
2023/03/23 00:18:21;;;;;;;0.93;0.93;;;;;;;12.64;60.84;94973.41;4357044;32;20224;-48
2023/03/23 00:20:51;;;;;;;0.50;0.50;;;;;;;12.66;60.68;94968.53;4360432;32;20185;-54
2023/03/23 00:23:18;;;;;;;1.07;1.03;;;;;;;12.60;60.94;94974.34;4365575;32;20203;-48
2023/03/23 00:25:48;;;;;;;0.70;0.70;;;;;;;12.51;61.15;94969.00;4354902;32;20275;-52
2023/03/23 00:28:15;;;;;;;0.67;0.67;;;;;;;12.52;61.54;94975.88;4359198;32;20195;-51
2023/03/23 00:30:41;;;;;;;0.87;0.87;;;;;;;12.62;60.99;94970.25;4376377;32;20298;-51
2023/03/23 00:33:08;;;;;;;0.20;0.20;;;;;;;12.57;61.73;94966.97;4358471;32;20215;-50
2023/03/23 00:35:35;;;;;;;0.60;0.60;;;;;;;12.60;61.38;94972.44;4365551;32;20196;-52
2023/03/23 00:38:01;;;;;;;0.50;0.50;;;;;;;12.39;62.35;94966.97;4366320;32;20185;-52
2023/03/23 00:40:27;;;;;;;0.53;0.53;;;;;;;12.53;61.82;94971.34;4364709;32;20256;-51
2023/03/23 00:42:52;;;;;;;1.57;1.10;;;;;;;12.36;62.35;94962.28;4356281;32;20177;-49
2023/03/23 00:45:18;;;;;;;0.57;0.57;;;;;;;12.37;62.45;94965.72;4370575;32;20259;-49
2023/03/23 00:47:46;;;;;;;0.60;0.60;;;;;;;12.39;62.80;94966.97;4365150;32;20186;-51
2023/03/23 00:50:13;;;;;;;0.80;0.80;;;;;;;12.34;62.97;94963.69;4365476;32;20267;-50
2023/03/23 00:52:39;;;;;;;1.17;0.77;;;;;;;12.28;63.09;94954.28;4349849;32;20184;-52
2023/03/23 00:55:05;;;;;;;0.60;0.60;;;;;;;12.43;62.79;94961.03;4362034;32;20286;-50
2023/03/23 00:57:31;;;;;;;8.10;1.10;;;;;;;12.36;63.18;94964.94;4374225;32;20228;-53
2023/03/23 00:59:56;;;;;;;0.43;0.43;;;;;;;12.32;63.45;94961.34;4354042;32;20185;-49
2023/03/23 01:02:24;;;;;;;0.70;0.70;;;;;;;12.19;64.40;94953.53;4374637;32;20264;-54
2023/03/23 01:04:52;;;;;;;7.10;1.17;;;;;;;12.18;64.26;94960.72;4368970;32;20203;-52
2023/03/23 01:07:18;;;;;;;0.60;0.60;;;;;;;12.23;63.98;94952.59;4363113;32;20197;-48
2023/03/23 01:09:44;;;;;;;0.37;0.37;;;;;;;12.44;63.37;94957.28;4363271;32;20195;-52
2023/03/23 01:12:11;;;;;;;0.53;0.53;;;;;;;12.35;63.37;94955.41;4348317;32;20173;-51
2023/03/23 01:14:37;;;;;;;1.00;0.90;;;;;;;12.27;63.67;94945.53;4368798;32;20204;-53
2023/03/23 01:17:02;;;;;;;0.43;0.43;;;;;;;12.33;64.20;94948.81;4371776;32;20181;-51
2023/03/23 01:19:28;;;;;;;0.47;0.47;;;;;;;12.32;63.85;94956.00;4369329;32;20298;-49
2023/03/23 01:21:53;;;;;;;0.63;0.63;;;;;;;12.53;62.94;94952.72;4373870;32;20188;-50
2023/03/23 01:24:19;;;;;;;0.73;0.73;;;;;;;12.33;63.64;94952.25;4373753;32;20197;-53
2023/03/23 01:26:44;;;;;;;0.30;0.30;;;;;;;12.43;63.31;94950.41;4360710;32;20177;-53
2023/03/23 01:29:10;;;;;;;0.57;0.57;;;;;;;12.23;64.08;94938.50;4364473;32;20258;-53
2023/03/23 01:31:36;;;;;;;1.27;0.73;;;;;;;12.36;63.46;94935.69;4368704;32;20238;-51
2023/03/23 01:34:02;;;;;;;0.23;0.23;;;;;;;12.27;64.04;94937.53;4353997;32;20216;-57
2023/03/23 01:36:32;;;;;;;0.77;0.77;;;;;;;12.19;63.96;94935.69;4369360;32;20181;-51
2023/03/23 01:38:58;;;;;;;0.20;0.20;;;;;;;12.26;64.02;94941.31;4369362;32;20192;-53
2023/03/23 01:41:24;;;;;;;0.90;0.90;;;;;;;12.16;64.37;94932.87;4360321;32;20173;-48
2023/03/23 01:44:04;;;;;;;1.00;0.93;;;;;;;12.30;63.71;94925.50;4370884;32;20180;-50
2023/03/23 01:46:35;;;;;;;0.30;0.30;;;;;;;12.30;63.45;94938.81;4365591;32;20193;-51
2023/03/23 01:49:06;;;;;;;0.70;0.53;;;;;;;12.23;64.05;94939.28;4367377;32;20188;-51
2023/03/23 01:51:35;;;;;;;0.33;0.33;;;;;;;12.32;63.68;94944.59;4367569;32;20258;-51
2023/03/23 01:54:04;;;;;;;0.37;0.37;;;;;;;12.40;63.37;94935.84;4375527;32;20210;-49
2023/03/23 01:56:37;;;;;;;0.90;0.90;;;;;;;12.23;64.18;94931.31;4372944;32;20199;-54
2023/03/23 01:59:03;;;;;;;0.43;0.43;;;;;;;12.39;63.38;94939.59;4367950;32;20206;-48
2023/03/23 02:01:29;;;;;;;0.70;0.57;;;;;;;12.24;63.76;94940.06;4372448;32;20181;-49
2023/03/23 02:03:57;;;;;;;0.60;0.60;;;;;;;12.24;64.13;94937.41;4359427;32;20235;-50
2023/03/23 02:06:24;;;;;;;1.67;1.20;;;;;;;12.32;63.89;94944.59;4365010;32;20229;-50
2023/03/23 02:08:51;;;;;;;0.40;0.40;;;;;;;12.17;64.72;94948.50;4369718;32;20240;-50
2023/03/23 02:11:20;;;;;;;0.30;0.30;;;;;;;12.18;64.75;94944.75;4363572;32;20242;-49
2023/03/23 02:13:46;;;;;;;0.43;0.40;;;;;;;12.12;64.67;94940.69;4361775;32;20212;-52
2023/03/23 02:16:30;;;;;;;0.60;0.60;;;;;;;12.04;65.23;94933.50;4372488;32;20217;-50
2023/03/23 02:19:16;;;;;;;0.70;0.70;;;;;;;12.09;64.94;94930.66;4373765;32;20201;-50
2023/03/23 02:22:14;;;;;;;0.97;0.70;;;;;;;12.19;64.29;94926.94;4365225;32;20241;-48
2023/03/23 02:24:52;;;;;;;0.60;0.60;;;;;;;12.10;64.56;94929.56;4366770;32;20231;-51
2023/03/23 02:27:26;;;;;;;0.27;0.27;;;;;;;12.10;64.54;94932.22;4367841;32;20227;-50
2023/03/23 02:30:32;;;;;;;0.87;0.87;;;;;;;12.21;64.43;94922.88;4371458;32;20255;-50
2023/03/23 02:33:29;;;;;;;0.50;0.50;;;;;;;12.24;64.22;94926.78;4352961;32;20199;-48
2023/03/23 02:36:10;;;;;;;2.13;1.00;;;;;;;12.31;63.83;94919.88;4356141;32;20219;-47
2023/03/23 02:38:43;;;;;;;0.53;0.53;;;;;;;12.19;64.09;94921.59;4369507;32;20188;-51
2023/03/23 02:41:11;;;;;;;0.50;0.50;;;;;;;12.16;64.72;94923.00;4369124;32;20181;-49
2023/03/23 02:43:40;;;;;;;0.30;0.30;;;;;;;12.18;64.59;94923.47;4359726;32;20227;-50
2023/03/23 02:46:09;;;;;;;0.17;0.17;;;;;;;12.20;64.62;94923.16;4373298;32;20199;-47
2023/03/23 02:48:36;;;;;;;1.80;1.27;;;;;;;12.18;65.01;94926.13;4370544;32;20275;-53
2023/03/23 02:51:04;;;;;;;0.50;0.50;;;;;;;12.17;64.31;94921.91;4367793;32;20223;-50
2023/03/23 02:53:33;;;;;;;0.20;0.20;;;;;;;12.24;64.14;94921.47;4373139;32;20236;-49
2023/03/23 02:56:02;;;;;;;0.87;0.60;;;;;;;12.16;64.21;94925.66;4370873;32;20177;-50
2023/03/23 02:58:28;;;;;;;0.13;0.13;;;;;;;12.14;64.68;94919.88;4357740;32;20185;-50
2023/03/23 03:00:56;;;;;;;0.33;0.33;;;;;;;12.28;64.15;94922.38;4365507;32;20177;-51
2023/03/23 03:03:25;;;;;;;1.60;0.57;;;;;;;12.23;64.35;94917.22;4368958;32;20228;-52
2023/03/23 03:06:14;;;;;;;2.80;0.67;;;;;;;12.29;64.72;94924.72;4354831;32;20181;-52
2023/03/23 03:08:50;;;;;;;0.30;0.30;;;;;;;12.09;nan;94919.25;4368548;32;20260;-52
2023/03/23 03:11:18;;;;;;;0.43;0.43;;;;;;;12.19;64.81;94918.94;4377257;32;20176;-51
2023/03/23 03:13:52;;;;;;;0.30;0.30;;;;;;;12.06;64.83;94917.97;4374579;32;20199;-52
2023/03/23 03:16:35;;;;;;;0.30;0.30;;;;;;;12.09;64.63;94913.91;4362301;32;20191;-49
2023/03/23 03:19:22;;;;;;;1.00;0.90;;;;;;;12.29;64.24;94908.75;4366552;32;20177;-57
2023/03/23 03:21:49;;;;;;;0.40;0.40;;;;;;;12.25;64.33;94918.50;4371374;32;20199;-54
2023/03/23 03:24:18;;;;;;;0.60;0.60;;;;;;;12.16;64.76;94917.69;4372819;32;20182;-53
2023/03/23 03:26:50;;;;;;;0.93;0.80;;;;;;;12.08;64.32;94918.47;4361263;32;20177;-54
2023/03/23 03:29:22;;;;;;;0.47;0.47;;;;;;;12.01;65.36;94915.50;4367896;32;20200;-55
2023/03/23 03:31:50;;;;;;;0.67;0.67;;;;;;;11.94;65.43;94907.97;4379235;32;20176;-55
2023/03/23 03:34:17;;;;;;;0.37;0.37;;;;;;;12.04;65.19;94910.34;4373495;32;20260;-55
2023/03/23 03:36:45;;;;;;;4.13;0.93;;;;;;;12.04;65.35;94917.53;4366715;32;20327;-54
2023/03/23 03:39:12;;;;;;;0.70;0.70;;;;;;;11.78;66.40;94914.06;4356990;32;20181;-50
2023/03/23 03:41:38;;;;;;;0.67;0.67;;;;;;;11.84;66.04;94923.47;4370877;32;20195;-54
2023/03/23 03:44:05;;;;;;;0.53;0.53;;;;;;;11.70;66.73;94915.56;4369146;32;20223;-55
2023/03/23 03:46:31;;;;;;;0.50;0.50;;;;;;;11.96;65.38;94918.31;4356219;32;20177;-53
2023/03/23 03:48:57;;;;;;;0.40;0.40;;;;;;;11.94;65.47;94928.47;4370380;32;20231;-54
2023/03/23 03:51:24;;;;;;;0.63;0.47;;;;;;;11.90;65.48;94930.16;4369102;32;20267;-54
2023/03/23 03:53:50;;;;;;;0.60;0.60;;;;;;;11.97;65.45;94922.53;4357323;32;20181;-54
2023/03/23 03:56:15;;;;;;;0.73;0.50;;;;;;;12.09;64.71;94930.66;4358447;32;20267;-53
2023/03/23 03:58:42;;;;;;;0.40;0.40;;;;;;;12.02;64.91;94931.16;4370969;32;20232;-55
2023/03/23 04:01:09;;;;;;;0.60;0.60;;;;;;;12.00;65.15;94932.53;4362669;32;20180;-55
2023/03/23 04:03:35;;;;;;;0.47;0.47;;;;;;;11.94;65.86;94928.47;4386636;32;20196;-56
2023/03/23 04:06:01;;;;;;;0.40;0.40;;;;;;;12.00;65.25;94933.31;4375646;32;20185;-56
2023/03/23 04:08:26;;;;;;;0.13;0.13;;;;;;;12.11;64.71;94938.31;4367120;32;20192;-55
2023/03/23 04:10:53;;;;;;;0.53;0.53;;;;;;;12.08;64.98;94946.91;4370792;32;20302;-55
2023/03/23 04:13:19;;;;;;;1.03;0.90;;;;;;;12.00;65.14;94943.19;4359587;32;20177;-55
2023/03/23 04:15:45;;;;;;;1.07;1.00;;;;;;;12.03;65.18;94932.72;4371663;32;20199;-55
2023/03/23 04:18:11;;;;;;;0.20;0.20;;;;;;;12.04;65.08;94928.19;4371671;32;20180;-53
2023/03/23 04:20:37;;;;;;;0.30;0.30;;;;;;;11.94;65.59;94933.78;4361044;32;20176;-56
2023/03/23 04:23:03;;;;;;;0.63;0.63;;;;;;;12.05;64.71;94946.44;4370075;32;20168;-54
2023/03/23 04:25:28;;;;;;;0.30;0.30;;;;;;;12.10;64.88;94942.88;4368179;32;20181;-51
2023/03/23 04:27:54;;;;;;;0.57;0.57;;;;;;;12.03;65.28;94950.53;4358258;32;20208;-54
2023/03/23 04:30:21;;;;;;;0.20;0.20;;;;;;;11.99;65.12;94941.63;4374054;32;20203;-55
2023/03/23 04:32:50;;;;;;;0.20;0.20;;;;;;;12.01;65.36;94952.72;4351569;32;20181;-49
2023/03/23 04:35:16;;;;;;;0.63;0.63;;;;;;;11.97;65.31;94949.91;4371980;32;20177;-54
2023/03/23 04:37:42;;;;;;;0.90;0.67;;;;;;;11.94;65.56;94949.72;4359133;32;20236;-56
2023/03/23 04:40:14;;;;;;;0.40;0.40;;;;;;;12.04;65.33;94958.19;4361301;32;20191;-56
2023/03/23 04:42:41;;;;;;;0.23;0.23;;;;;;;12.01;65.37;94956.16;4365853;32;20219;-55
2023/03/23 04:45:08;;;;;;;0.30;0.30;;;;;;;12.01;65.36;94952.72;4371185;32;20180;-56
2023/03/23 04:47:39;;;;;;;0.80;0.47;;;;;;;11.87;65.75;94958.16;4354391;32;20196;-55
2023/03/23 04:50:08;;;;;;;0.43;0.43;;;;;;;11.83;66.12;94964.41;4360201;32;20238;-56
2023/03/23 04:52:33;;;;;;;0.30;0.30;;;;;;;11.67;66.96;94954.16;4372186;32;20180;-55
2023/03/23 04:54:58;;;;;;;0.30;0.30;;;;;;;11.69;66.76;94954.66;4364344;32;20193;-54
2023/03/23 04:57:27;;;;;;;0.67;0.67;;;;;;;11.82;66.68;94947.69;4375658;32;20260;-54
2023/03/23 04:59:52;;;;;;;0.57;0.57;;;;;;;11.91;66.34;94947.69;4365018;32;20267;-56
2023/03/23 05:02:18;;;;;;;0.60;0.60;;;;;;;12.00;65.95;94964.44;4372497;32;20226;-56
2023/03/23 05:04:43;;;;;;;0.83;0.83;;;;;;;11.89;66.06;94963.94;4367152;32;20249;-54
2023/03/23 05:07:10;;;;;;;0.30;0.30;;;;;;;11.86;66.35;94963.78;4369757;32;20193;-58
2023/03/23 05:09:36;;;;;;;0.10;0.10;;;;;;;11.88;66.77;94962.37;4376020;32;20245;-55
2023/03/23 05:12:09;;;;;;;0.57;0.57;;;;;;;11.85;66.66;94963.00;4353557;32;20217;-55
2023/03/23 05:14:35;;;;;;;1.87;0.97;;;;;;;11.79;66.55;94963.47;4360636;32;20193;-55
2023/03/23 05:17:00;;;;;;;0.87;0.63;;;;;;;11.97;65.74;94965.06;4374428;32;20203;-51
2023/03/23 05:19:27;;;;;;;0.53;0.53;;;;;;;11.98;65.80;94956.00;4359827;32;20184;-54
2023/03/23 05:21:53;;;;;;;0.70;0.70;;;;;;;11.94;65.89;94949.72;4362729;32;20275;-56
2023/03/23 05:24:19;;;;;;;0.80;0.80;;;;;;;12.02;65.95;94956.94;4354283;32;20197;-54
2023/03/23 05:26:48;;;;;;;0.50;0.50;;;;;;;12.06;65.66;94957.88;4350044;32;20189;-54
2023/03/23 05:29:13;;;;;;;0.30;0.30;;;;;;;11.93;65.91;94967.56;4365021;32;20184;-54
2023/03/23 05:31:39;;;;;;;0.50;0.50;;;;;;;12.16;65.32;94968.22;4370117;32;20204;-55
2023/03/23 05:34:05;;;;;;;0.37;0.37;;;;;;;12.08;65.41;94979.63;4366706;32;20217;-55
2023/03/23 05:36:30;;;;;;;3.50;0.33;;;;;;;12.05;66.10;94982.91;4360907;32;20228;-56
2023/03/23 05:38:59;;;;;;;0.47;0.47;;;;;;;12.06;65.60;94987.13;4366186;32;20180;-53
2023/03/23 05:41:25;;;;;;;0.30;0.30;;;;;;;12.01;65.96;94992.59;4363246;32;20192;-55
2023/03/23 05:43:51;;;;;;;0.40;0.40;;;;;;;11.98;66.08;94987.91;4368575;32;20193;-56
2023/03/23 05:46:16;;;;;;;0.30;0.30;;;;;;;11.85;66.74;94994.88;4354898;32;20268;-55
2023/03/23 05:48:42;;;;;;;0.70;0.70;;;;;;;11.78;66.93;94993.78;4366541;32;20266;-55
2023/03/23 05:51:07;;;;;;;1.40;1.23;;;;;;;11.82;67.00;95000.06;4360679;32;20350;-55
2023/03/23 05:53:33;;;;;;;0.40;0.40;;;;;;;11.78;67.32;94986.59;4374199;32;20177;-58
2023/03/23 05:56:00;;;;;;;0.67;0.67;;;;;;;11.85;67.15;94972.84;4376156;32;20173;-54
2023/03/23 05:58:26;;;;;;;0.60;0.57;;;;;;;11.82;66.82;94966.28;4358284;32;20201;-54
2023/03/23 06:00:51;;;;;;;0.53;0.53;;;;;;;11.82;67.28;94953.00;4359508;32;20236;-56
2023/03/23 06:03:16;;;;;;;0.60;0.60;;;;;;;11.85;67.14;94935.62;4377336;32;20176;-54
2023/03/23 06:05:44;;;;;;;0.20;0.20;;;;;;;11.53;68.01;94934.13;4375821;32;20205;-54
2023/03/23 06:08:09;;;;;;;0.33;0.33;;;;;;;11.46;68.62;94933.78;4364439;32;20212;-57
2023/03/23 06:10:36;;;;;;;1.10;1.00;;;;;;;11.40;68.78;94919.88;4367277;32;20246;-54
2023/03/23 06:13:02;;;;;;;0.30;0.30;;;;;;;11.28;69.17;94923.13;4374511;32;20181;-56
2023/03/23 06:15:31;;;;;;;0.30;0.30;;;;;;;11.28;69.63;94928.41;4369399;32;20192;-56
2023/03/23 06:17:58;;;;;;;0.60;0.60;;;;;;;11.34;69.43;94921.91;4370643;32;20180;-56
2023/03/23 06:20:24;;;;;;;0.60;0.60;;;;;;;11.42;69.49;94924.91;4372635;32;20226;-55
2023/03/23 06:22:50;;;;;;;0.60;0.60;;;;;;;11.43;69.29;94929.88;4365331;32;20193;-54
2023/03/23 06:25:16;;;;;;;0.30;0.30;;;;;;;11.52;69.33;94935.22;4361451;32;20173;-57
2023/03/23 06:27:41;;;;;;;0.57;0.57;;;;;;;11.42;69.37;94938.19;4365539;32;20310;-57
2023/03/23 06:30:07;;;;;;;0.80;0.77;;;;;;;11.62;68.61;94946.38;4358360;32;20200;-55
2023/03/23 06:32:33;;;;;;;0.60;0.60;;;;;;;11.68;68.18;94953.06;4358476;32;20200;-54
2023/03/23 06:34:59;;;;;;;0.30;0.30;;;;;;;11.60;68.37;94964.47;4361819;32;20243;-56
2023/03/23 06:37:25;;;;;;;0.73;0.73;;;;;;;11.59;68.34;94970.09;4370493;32;20173;-57
2023/03/23 06:39:51;;;;;;;0.90;0.90;;;;;;;11.56;68.47;94965.41;4362749;32;20181;-61
2023/03/23 06:42:17;;;;;;;0.73;0.73;;;;;;;11.63;68.66;94961.22;4371220;32;20189;-56
2023/03/23 06:44:43;;;;;;;0.50;0.50;;;;;;;11.64;68.49;94954.78;4372948;32;20189;-56
2023/03/23 06:47:08;;;;;;;0.80;0.50;;;;;;;11.61;68.63;94947.47;4373926;32;20325;-56
2023/03/23 06:49:34;;;;;;;0.50;0.50;;;;;;;11.63;69.00;94953.25;4368794;32;20289;-55
2023/03/23 06:52:01;;;;;;;0.30;0.30;;;;;;;11.65;69.27;94942.28;4375281;32;20196;-56
2023/03/23 06:54:27;;;;;;;16.57;0.63;;;;;;;11.59;69.37;94946.19;4373436;32;20186;-57
2023/03/23 06:56:52;;;;;;;19.57;1.13;;;;;;;11.69;69.00;94928.06;4367064;32;20312;-52
2023/03/23 06:59:17;;;;;;;0.47;0.47;;;;;;;11.74;68.55;94919.19;4373017;32;20204;-53
2023/03/23 07:05:05;;;;;;;0.27;0.27;;;;;;;11.91;67.78;94913.91;4370019;32;20223;-55
2023/03/23 07:07:30;;;;;;;0.60;0.60;;;;;;;11.75;68.76;94914.66;4369873;32;20193;-53
2023/03/23 07:09:56;;;;;;;1.73;1.37;;;;;;;11.93;68.25;94910.94;4367900;32;20173;-57
2023/03/23 07:12:22;;;;;;;0.90;0.90;;;;;;;11.99;68.31;94909.72;4372300;32;20221;-55
2023/03/23 07:14:47;;;;;;;1.10;0.50;;;;;;;12.09;67.83;94916.59;4374121;32;20185;-54
2023/03/23 07:17:13;;;;;;;0.50;0.50;;;;;;;12.17;67.71;94916.59;4372622;32;20177;-56
2023/03/23 07:19:39;;;;;;;0.60;0.60;;;;;;;12.35;66.77;94928.00;4369949;32;20181;-57
2023/03/23 07:22:06;;;;;;;39.00;2.77;;;;;;;12.45;66.26;94929.59;4365650;32;20192;-67
2023/03/23 07:24:31;;;;;;;2.00;1.10;;;;;;;12.98;79.25;94937.94;4371415;32;20193;-67
2023/03/23 07:26:57;;;;;;;15.60;1.83;;;;;;;14.10;83.24;94940.13;4373621;32;20176;-67
2023/03/23 07:29:22;;;;;;;3.00;0.67;;;;;;;14.42;73.93;94937.84;4351210;32;20343;-67
2023/03/23 07:31:48;;;;;;;0.73;0.73;;;;;;;14.94;69.87;94932.06;4360730;32;20237;-67
2023/03/23 07:34:13;;;;;;;0.83;0.83;;;;;;;15.16;66.00;94930.88;4365366;32;20197;-67
2023/03/23 07:36:38;;;;;;;0.70;0.70;;;;;;;15.43;63.52;94927.56;4367112;32;20197;-67
2023/03/23 07:39:07;;;;;;;1.50;0.87;;;;;;;15.67;62.85;94926.81;4374905;32;20181;-67
2023/03/23 07:41:33;;;;;;;0.20;0.20;;;;;;;15.83;61.13;94919.66;4366973;32;20191;-54
2023/03/23 07:43:58;;;;;;;0.67;0.57;;;;;;;15.95;60.51;94925.00;4365948;32;20185;-66
2023/03/23 07:46:23;;;;;;;2.93;0.47;;;;;;;15.99;59.26;94928.59;4362473;32;20184;-66
2023/03/23 07:48:49;;;;;;;0.30;0.30;;;;;;;16.12;59.12;94923.97;4363027;32;20261;-67
2023/03/23 07:51:16;;;;;;;0.67;0.67;;;;;;;16.22;58.70;94926.16;4360643;32;20200;-66
2023/03/23 07:53:44;;;;;;;5.10;0.80;;;;;;;16.27;58.32;94922.47;4353519;32;20181;-66
2023/03/23 07:56:14;;;;;;;1.60;1.13;;;;;;;16.36;57.67;94931.16;4360548;32;20185;-55
2023/03/23 07:58:41;;;;;;;0.97;0.63;;;;;;;15.98;54.69;94936.94;4361220;32;20205;-54
2023/03/23 08:01:06;;;;;;;0.77;0.70;;;;;;;15.36;56.13;94924.66;4351469;32;20204;-52
2023/03/23 08:03:32;;;;;;;0.60;0.60;;;;;;;15.17;57.06;94925.19;4361721;32;20200;-50
2023/03/23 08:05:59;;;;;;;1.33;0.73;;;;;;;15.03;57.76;94917.47;4367213;32;20197;-51
2023/03/23 08:08:24;;;;;;;2.63;1.33;;;;;;;14.90;58.63;94926.59;4348404;32;20224;-53
2023/03/23 08:10:50;;;;;;;4.90;1.23;;;;;;;14.84;58.63;94925.22;4369365;32;20196;-53
2023/03/23 08:13:15;;;;;;;1.27;1.17;;;;;;;14.60;59.47;94917.91;4371091;32;20234;-57
2023/03/23 08:15:41;;;;;;;1.10;1.00;;;;;;;14.64;59.05;94912.69;4369920;32;21989;-52
2023/03/23 08:18:06;;;;;;;0.80;0.80;;;;;;;14.52;59.25;94916.13;4357020;32;20200;-55
2023/03/23 08:20:32;;;;;;;8.60;1.23;;;;;;;14.51;59.76;94919.09;4361755;32;20177;-58
2023/03/23 08:22:58;;;;;;;0.43;0.43;;;;;;;14.65;58.92;94920.38;4369515;32;20189;-57
2023/03/23 08:25:26;;;;;;;0.43;0.43;;;;;;;14.77;58.39;94917.75;4364671;32;20185;-56
2023/03/23 08:27:53;;;;;;;0.40;0.40;;;;;;;14.73;58.03;94921.41;4354101;32;20481;-57
2023/03/23 08:30:20;;;;;;;0.60;0.60;;;;;;;14.73;58.75;94924.09;4373723;32;20193;-56
2023/03/23 08:32:46;;;;;;;0.70;0.70;;;;;;;14.81;58.30;94917.87;4355663;32;20207;-55
2023/03/23 08:35:14;;;;;;;1.07;0.90;;;;;;;14.81;58.18;94931.22;4352328;32;20173;-55
2023/03/23 08:37:41;;;;;;;1.70;0.73;;;;;;;14.78;58.00;94923.84;4350587;32;20173;-57
2023/03/23 08:40:11;;;;;;;0.50;0.50;;;;;;;14.95;57.85;94934.41;4360612;32;20191;-57
2023/03/23 08:42:38;;;;;;;0.63;0.63;;;;;;;15.01;56.93;94925.03;4364228;32;20235;-57
2023/03/23 08:45:06;;;;;;;0.80;0.80;;;;;;;15.04;56.88;94928.94;4374799;32;20219;-55
2023/03/23 08:47:32;;;;;;;1.53;1.43;;;;;;;15.19;56.74;94927.50;4352469;32;20204;-54
2023/03/23 08:49:57;;;;;;;0.50;0.50;;;;;;;15.17;57.91;94929.75;4369296;32;20185;-54
2023/03/23 08:52:23;;;;;;;0.77;0.77;;;;;;;15.21;58.75;94931.41;4359053;32;20218;-55
2023/03/23 08:54:48;;;;;;;19.70;2.20;;;;;;;15.12;59.65;94931.53;4364765;32;20223;-54
2023/03/23 08:57:18;;;;;;;7.93;3.03;;;;;;;15.21;59.44;94930.63;4362971;32;20199;-58
2023/03/23 08:59:43;;;;;;;16.00;4.30;;;;;;;15.34;58.87;94934.91;4369018;32;20284;-56
2023/03/23 09:02:12;;;;;;;1.10;1.10;;;;;;;15.51;58.35;94948.06;4363890;32;20204;-53
2023/03/23 09:04:38;;;;;;;0.30;0.30;;;;;;;15.57;58.82;94954.78;4374816;32;20184;-55
2023/03/23 09:07:04;;;;;;;2.97;0.93;;;;;;;15.70;57.65;94961.69;4359717;32;20207;-54
2023/03/23 09:09:29;;;;;;;11.70;1.20;;;;;;;15.79;58.02;94965.03;4357560;32;20260;-54
2023/03/23 09:11:55;;;;;;;0.57;0.57;;;;;;;15.79;55.41;94966.94;4355547;32;20176;-53
2023/03/23 09:14:21;;;;;;;0.40;0.40;;;;;;;15.73;55.35;94971.72;4367595;32;20206;-66
2023/03/23 09:16:47;;;;;;;8.67;0.83;;;;;;;17.14;65.88;94976.97;4376077;32;20185;-66
2023/03/23 09:19:12;;;;;;;1.10;0.93;;;;;;;18.08;59.28;94970.87;4376040;32;20278;-66
2023/03/23 09:21:38;;;;;;;0.43;0.43;;;;;;;18.58;56.12;94973.88;4364698;32;20177;-66
2023/03/23 09:24:04;;;;;;;0.60;0.60;;;;;;;18.77;51.12;94985.44;4359204;32;20196;-64
2023/03/23 09:26:30;;;;;;;0.47;0.47;;;;;;;19.04;49.94;94980.19;4374073;32;20236;-67
2023/03/23 09:28:56;;;;;;;6.33;1.00;;;;;;;19.41;48.85;94983.19;4371096;32;20311;-57
2023/03/23 09:31:22;;;;;;;0.40;0.40;;;;;;;18.63;44.20;94990.53;4367290;32;20223;-56
2023/03/23 09:33:51;;;;;;;0.70;0.70;;;;;;;18.19;46.02;94992.59;4370220;32;20211;-57
2023/03/23 09:36:17;;;;;;;3.50;1.43;;;;;;;17.51;46.77;94992.84;4371050;32;20181;-54
2023/03/23 09:38:45;;;;;;;0.83;0.83;;;;;;;17.13;47.66;94996.88;4372814;32;20250;-55
2023/03/23 09:41:44;;;;;;;0.67;0.67;;;;;;;16.95;48.55;94995.63;4361688;32;20219;-55
2023/03/23 09:44:15;;;;;;;1.03;1.03;;;;;;;16.81;48.90;94995.22;4364462;32;20222;-56
2023/03/23 09:46:56;;;;;;;1.00;0.90;;;;;;;16.83;49.63;94993.00;4377073;32;20180;-53
2023/03/23 09:49:29;;;;;;;0.73;0.60;;;;;;;16.70;49.38;94999.50;4358695;32;20268;-54
2023/03/23 09:51:54;;;;;;;1.13;1.13;;;;;;;16.54;49.85;94994.03;4378452;32;20215;-58
2023/03/23 09:54:45;;;;;;;1.53;1.40;;;;;;;16.63;49.64;94985.84;4369003;32;20185;-53
2023/03/23 09:57:37;;;;;;;11.97;3.67;;;;;;;16.57;49.22;94979.19;4361965;32;20189;-57
2023/03/23 10:00:32;;;;;;;8.80;3.60;;;;;;;16.61;49.65;94980.88;4374944;32;20189;-59
2023/03/23 10:03:34;;;;;;;3.13;1.90;;;;;;;16.64;49.41;94987.44;4365003;32;20177;-57
2023/03/23 10:05:59;;;;;;;0.97;0.97;;;;;;;16.74;50.27;94989.66;4375645;32;20188;-55
2023/03/23 10:08:32;;;;;;;0.53;0.53;;;;;;;16.77;49.74;94973.69;4362583;32;20176;-53
2023/03/23 10:11:37;;;;;;;30.70;20.37;;;;;;;16.78;50.20;94982.50;4364856;32;20204;-57
2023/03/23 10:14:18;;;;;;;1.50;1.43;;;;;;;16.77;49.66;94978.28;4337721;32;20188;-55
2023/03/23 10:17:00;;;;;;;5.60;5.10;;;;;;;16.81;50.39;94989.88;4330948;32;20266;-56
2023/03/23 10:19:51;;;;;;;5.87;4.07;;;;;;;16.79;49.81;94984.84;4366283;32;20200;-53
2023/03/23 10:22:25;;;;;;;2.23;2.13;;;;;;;16.91;50.13;94984.00;4363274;32;20216;-48
2023/03/23 10:25:14;;;;;;;4.37;3.80;;;;;;;16.80;49.14;94985.63;4377143;32;20251;-53
2023/03/23 10:27:50;;;;;;;17.10;10.20;;;;;;;16.94;48.31;94990.59;4369471;32;20177;-56
2023/03/23 10:30:24;;;;;;;40.07;26.17;;;;;;;16.81;49.92;95001.37;4372722;32;20217;-52
2023/03/23 10:32:58;;;;;;;1.33;1.30;;;;;;;16.78;49.11;94996.69;4367322;32;20188;-53
2023/03/23 10:35:31;;;;;;;4.87;3.17;;;;;;;16.79;50.58;94992.09;4364716;32;20305;-52
2023/03/23 10:38:06;;;;;;;2.93;2.40;;;;;;;16.86;51.13;94997.66;4372574;32;20222;-56
2023/03/23 10:40:34;;;;;;;2.10;2.00;;;;;;;16.97;49.14;95008.69;4369570;32;20202;-55
2023/03/23 10:43:00;;;;;;;44.93;25.70;;;;;;;16.83;50.16;94999.09;4369384;32;20182;-53
2023/03/23 10:45:32;;;;;;;11.97;7.83;;;;;;;16.76;49.09;94995.47;4372286;32;20227;-53
2023/03/23 10:48:10;;;;;;;33.60;20.93;;;;;;;16.77;50.33;94991.66;4361623;32;20181;-53
2023/03/23 10:50:38;;;;;;;9.80;7.00;;;;;;;16.72;49.40;94994.59;4369365;32;20181;-57
2023/03/23 10:53:15;;;;;;;5.60;3.30;;;;;;;16.87;48.89;94996.53;4365700;32;20199;-55
2023/03/23 10:55:43;;;;;;;1.10;1.07;;;;;;;16.97;49.57;94989.91;4366760;32;20188;-56
2023/03/23 10:58:11;;;;;;;0.73;0.73;;;;;;;16.96;48.60;94991.03;4353504;32;20185;-56
2023/03/23 11:00:42;;;;;;;0.63;0.63;;;;;;;16.94;48.22;94994.06;4372828;32;20185;-55
2023/03/23 11:03:14;;;;;;;0.97;0.93;;;;;;;16.95;48.76;94995.63;4372192;32;20199;-56
2023/03/23 11:05:57;;;;;;;0.73;0.73;;;;;;;16.88;49.37;94984.69;4374381;32;20193;-56
2023/03/23 11:08:25;;;;;;;1.57;1.00;;;;;;;17.03;49.02;94989.34;4366031;32;20211;-57
2023/03/23 11:10:55;;;;;;;0.83;0.83;;;;;;;16.95;48.49;95000.19;4371045;32;20211;-57
2023/03/23 11:13:24;;;;;;;0.50;0.50;;;;;;;16.96;48.23;94994.50;4365504;32;20260;-56
2023/03/23 11:15:50;;;;;;;0.80;0.80;;;;;;;17.06;47.78;94990.53;4365651;32;20185;-57
2023/03/23 11:18:24;;;;;;;0.77;0.77;;;;;;;17.08;47.51;94997.09;4359908;32;20198;-55
2023/03/23 11:20:56;;;;;;;0.40;0.40;;;;;;;17.12;47.50;95000.66;4366576;32;20184;-56
2023/03/23 11:23:29;;;;;;;2.93;1.07;;;;;;;17.08;47.04;94997.09;4345948;32;20205;-56
2023/03/23 11:26:17;;;;;;;0.90;0.90;;;;;;;17.22;46.43;94994.06;4356359;32;20252;-56
2023/03/23 11:28:53;;;;;;;1.30;1.00;;;;;;;17.20;46.68;94988.25;4360418;32;20386;-56
2023/03/23 11:31:23;;;;;;;0.30;0.30;;;;;;;17.23;46.40;94984.88;4357678;32;20228;-57
2023/03/23 11:34:16;;;;;;;0.83;0.83;;;;;;;17.20;47.41;94990.94;4365261;32;20197;-57
2023/03/23 11:36:55;;;;;;;0.90;0.90;;;;;;;17.25;46.96;94987.22;4358646;32;20223;-56
2023/03/23 11:39:29;;;;;;;0.83;0.83;;;;;;;17.37;46.70;94985.25;4373191;32;20192;-54
2023/03/23 11:41:57;;;;;;;0.70;0.70;;;;;;;17.44;46.70;94982.75;4351456;32;20177;-56
2023/03/23 11:44:31;;;;;;;1.17;1.07;;;;;;;17.36;46.56;94980.22;4360239;32;20188;-57
2023/03/23 11:47:15;;;;;;;0.93;0.70;;;;;;;17.34;46.77;94985.16;4359367;32;20180;-56